210750Z 32003KT CAVOK M17/M20 Q1025 RWY 14 ICE 0-10 PCT FCT 0.60=

210830Z 2109/2118 32004KT CAVOK=

Aktuell METAR/TAF ESNU/UME

Källa: Luftfartsverket (aro.lfv.se)